Terminal Aerodrome Forecast
Issued by NWS

Home | Current Version | Previous Version | Text Only | Print | Product List | Glossary On
Versions: 1 2 3 4 5 6 7 8 9 10 11 12 13 14 15 16 17 18 19 20 21 22 23 24 25 26 27
000
FTUS43 KIND 302320
TAFHUF
TAF
KHUF 302320Z 0100/0124 15014KT P6SM SHRA VCTS OVC060CB
      WS020/18045KT
     FM010300 19015G23KT 6SM SHRA VCTS OVC015CB
     FM010600 21014KT P6SM VCSH BKN040
     FM010700 21013KT P6SM BKN080
     FM010900 20012KT P6SM SCT200
     FM011800 22020G31KT P6SM OVC030=

USA.gov is the U.S. government's official web portal to all federal, state and local government web resources and services.